• Join FlightAware (Why Join?)
  • Login
  • US Flag 
02:23AM EDT


 

Airport Tracker/Info


-or-


 

Live Flight TrackerFlight Track Log ✈ NDU99 ✈ 26-Apr-2013 ✈ KFFM - KFAR

Flight Track Log - Related Links

Times and Time Zones

All times are in EDT time to prevent confusion due to time zone crossing. See the NDU99 flight status page for this flight to view local times or setup timezone preferences in your user account.

Time Position Orientation Groundspeed Altitude Reporting Facility
EDT Latitude Longitude Course Direction KTS MPH feet Rate Location/Type
11:22PM 46.2133 -96.0897 325° Northwest 125 144 3,800  Level Minneapolis Center
11:23PM 46.2386 -96.1183 322° Northwest 113 130 4,700 780 Climbing Minneapolis Center
11:24PM 46.2628 -96.1464 321° Northwest 106 122 5,500 660 Climbing Minneapolis Center
11:25PM 46.2869 -96.1728 323° Northwest 112 129 6,100 240 Climbing Minneapolis Center
11:26PM 46.3203 -96.2050 326° Northwest 136 157 6,000 -60 Descending Minneapolis Center
11:27PM 46.4211 -96.3044 325° Northwest  Level FlightAware Approximate
11:27PM 46.3556 -96.2392 326° Northwest 144 166 6,000  Level Minneapolis Center
11:28PM 46.3825 -96.2664 325° Northwest 146 168 5,900  Descending Minneapolis Center
11:29PM 46.4214 -96.3072 324° Northwest 143 165 6,000  Climbing Minneapolis Center
11:30PM 46.4550 -96.3414 325° Northwest 144 166 6,000  Level Minneapolis Center
11:31PM 46.4856 -96.3731 324° Northwest 141 162 6,000  Level Minneapolis Center
11:33PM 46.5162 -96.4052 324° Northwest  Level FlightAware Approximate
11:40PM 46.7141 -96.6139 324° Northwest  Level FlightAware Approximate
11:41PM 46.7445 -96.6389 331° Northwest  Level FlightAware Approximate
11:42PM 46.7751 -96.6634 331° Northwest  Level FlightAware Approximate
11:43PM 46.8049 -96.6895 319° Northwest  Level FlightAware Approximate
11:44PM 46.8315 -96.7226 319° Northwest  Level FlightAware Approximate
11:45PM 46.8580 -96.7558 319° Northwest  Level FlightAware Approximate
11:46PM 46.8880 -96.7809 336° Northwest  Level FlightAware Approximate
11:47PM 46.9167 -96.8000 336° Northwest  Level FlightAware Approximate
11:48PM 46.9207 -96.8158 336° Northwest  Level Estimated
11:49PM 46.9207 -96.8158 336° Northwest  Level Estimated
11:50PM 46.9207 -96.8158 336° Northwest  Level Estimated